Time;durP1;ratioP1;P1;durP2;ratioP2;P2;SDS_P1;SDS_P2;PMS_P1;PMS_P2;Temp;Humidity;BMP_temperature;BMP_pressure;BME280_temperature;BME280_humidity;BME280_pressure;Samples;Min_cycle;Max_cycle;Signal;HPM_P1;HPM_P2
2023/03/17 00:01:18;;;;;;;5.43;2.65;;;10.10;99.90;;;;;;5013168;28;20025;-69
2023/03/17 00:03:46;;;;;;;6.32;2.72;;;10.10;99.90;;;;;;5030831;28;20030;-69
2023/03/17 00:06:19;;;;;;;4.68;2.60;;;10.00;99.90;;;;;;5028122;28;20033;-70
2023/03/17 00:08:46;;;;;;;6.30;3.20;;;10.00;99.90;;;;;;5030657;28;20029;-69
2023/03/17 00:11:13;;;;;;;5.85;3.20;;;9.90;99.90;;;;;;5029604;28;20021;-69
2023/03/17 00:13:40;;;;;;;8.52;3.30;;;9.90;99.90;;;;;;5012290;28;20394;-68
2023/03/17 00:16:19;;;;;;;5.93;2.85;;;9.80;99.90;;;;;;5030900;28;20021;-69
2023/03/17 00:18:49;;;;;;;6.68;3.00;;;9.70;99.90;;;;;;5028933;28;20042;-70
2023/03/17 00:21:19;;;;;;;6.68;2.80;;;9.70;99.90;;;;;;5026191;28;20354;-70
2023/03/17 00:23:49;;;;;;;7.47;3.17;;;9.70;99.90;;;;;;5030609;28;20059;-70
2023/03/17 00:26:15;;;;;;;8.43;3.30;;;9.70;99.90;;;;;;5028990;28;20033;-69
2023/03/17 00:28:41;;;;;;;6.32;3.00;;;9.70;99.90;;;;;;5031042;28;20040;-69
2023/03/17 00:31:17;;;;;;;4.95;2.67;;;9.70;99.90;;;;;;5030571;28;20051;-69
2023/03/17 00:33:44;;;;;;;7.03;3.42;;;9.70;99.90;;;;;;5032084;28;20041;-69
2023/03/17 00:36:17;;;;;;;8.30;3.67;;;9.70;99.90;;;;;;5032180;28;20119;-68
2023/03/17 00:38:44;;;;;;;5.93;3.20;;;9.60;99.90;;;;;;5031772;28;20042;-69
2023/03/17 00:41:11;;;;;;;6.88;3.55;;;9.60;99.90;;;;;;5031941;28;20083;-68
2023/03/17 00:43:37;;;;;;;5.72;3.03;;;9.70;99.90;;;;;;5031633;28;20028;-69
2023/03/17 00:46:12;;;;;;;6.45;2.90;;;9.60;99.90;;;;;;5032050;28;20060;-69
2023/03/17 00:48:38;;;;;;;5.30;2.38;;;9.60;99.90;;;;;;5031739;28;20462;-69
2023/03/17 00:51:04;;;;;;;4.57;3.03;;;9.60;99.90;;;;;;5030657;28;20068;-68
2023/03/17 00:53:29;;;;;;;5.53;3.00;;;9.60;99.90;;;;;;5031542;28;20040;-69
2023/03/17 00:55:55;;;;;;;8.07;3.28;;;9.60;99.90;;;;;;5030212;28;20552;-68
2023/03/17 00:58:30;;;;;;;5.72;2.67;;;9.60;99.90;;;;;;5021648;28;20097;-70
2023/03/17 01:00:56;;;;;;;8.15;3.88;;;9.60;99.90;;;;;;5027392;28;20033;-69
2023/03/17 01:03:22;;;;;;;7.75;3.35;;;9.60;99.90;;;;;;5026667;28;20028;-69
2023/03/17 01:05:50;;;;;;;6.32;3.28;;;9.60;99.90;;;;;;5032494;28;20117;-68
2023/03/17 01:08:17;;;;;;;6.60;3.25;;;9.60;99.90;;;;;;5025911;28;20436;-69
2023/03/17 01:10:43;;;;;;;8.05;3.00;;;9.60;99.90;;;;;;5030805;28;20121;-70
2023/03/17 01:13:13;;;;;;;5.43;2.97;;;9.70;99.90;;;;;;5028409;28;20130;-67
2023/03/17 01:15:42;;;;;;;6.32;3.10;;;9.60;99.90;;;;;;5027532;28;20030;-70
2023/03/17 01:18:10;;;;;;;5.07;2.80;;;9.60;99.90;;;;;;5030023;28;20033;-70
2023/03/17 01:20:37;;;;;;;6.15;2.70;;;9.60;99.90;;;;;;5028410;28;20052;-68
2023/03/17 01:23:03;;;;;;;8.68;3.08;;;9.60;99.90;;;;;;5028504;28;20568;-69
2023/03/17 01:25:29;;;;;;;4.18;2.80;;;9.60;99.90;;;;;;5030220;28;20101;-70
2023/03/17 01:27:58;;;;;;;7.05;3.42;;;9.60;99.90;;;;;;5028946;28;20405;-68
2023/03/17 01:30:37;;;;;;;8.65;3.60;;;9.60;99.90;;;;;;5026897;28;20072;-70
2023/03/17 01:33:03;;;;;;;5.82;2.60;;;9.60;99.90;;;;;;5031903;28;20069;-70
2023/03/17 01:35:29;;;;;;;7.90;3.00;;;9.60;99.90;;;;;;5032532;28;20535;-69
2023/03/17 01:37:56;;;;;;;8.02;3.22;;;9.60;99.90;;;;;;5033388;28;20033;-68
2023/03/17 01:40:25;;;;;;;9.93;2.97;;;9.60;99.90;;;;;;5032265;28;20022;-69
2023/03/17 01:43:03;;;;;;;8.15;3.22;;;9.60;99.90;;;;;;5032597;28;20030;-68
2023/03/17 01:46:08;;;;;;;8.27;2.55;;;9.60;99.90;;;;;;5028827;28;20041;-68
2023/03/17 01:48:39;;;;;;;6.55;3.10;;;9.60;99.90;;;;;;5032722;28;20510;-68
2023/03/17 01:51:07;;;;;;;5.53;2.90;;;9.60;99.90;;;;;;5031969;28;20037;-69
2023/03/17 01:53:34;;;;;;;5.20;2.50;;;9.60;99.90;;;;;;5034481;28;20534;-68
2023/03/17 01:56:01;;;;;;;6.50;3.05;;;9.60;99.90;;;;;;5032866;28;20013;-69
2023/03/17 01:58:27;;;;;;;6.90;2.90;;;9.60;99.90;;;;;;5032777;28;20032;-70
2023/03/17 02:00:53;;;;;;;7.53;3.35;;;9.70;99.90;;;;;;5028395;28;20025;-68
2023/03/17 02:03:18;;;;;;;6.05;3.20;;;9.70;99.90;;;;;;5034185;28;20421;-70
2023/03/17 02:05:45;;;;;;;6.75;2.88;;;9.70;99.90;;;;;;5028677;28;20380;-69
2023/03/17 02:08:15;;;;;;;5.97;2.78;;;9.70;99.90;;;;;;5027407;28;20033;-69
2023/03/17 02:10:41;;;;;;;5.88;3.35;;;9.70;99.90;;;;;;5027310;28;20025;-68
2023/03/17 02:13:11;;;;;;;5.82;2.45;;;9.70;99.90;;;;;;5025500;28;20028;-69
2023/03/17 02:15:36;;;;;;;5.47;2.85;;;9.70;99.90;;;;;;5029343;28;20070;-68
2023/03/17 02:18:02;;;;;;;7.40;2.85;;;9.80;99.90;;;;;;5012868;28;20428;-70
2023/03/17 02:20:28;;;;;;;7.00;3.22;;;9.80;99.90;;;;;;5027829;28;20457;-70
2023/03/17 02:22:56;;;;;;;4.32;2.40;;;9.80;99.90;;;;;;5031730;28;20044;-68
2023/03/17 02:25:23;;;;;;;5.35;2.88;;;9.80;99.90;;;;;;5026299;28;20096;-69
2023/03/17 02:27:54;;;;;;;5.78;2.90;;;9.90;99.90;;;;;;5026780;28;20034;-70
2023/03/17 02:30:22;;;;;;;8.20;3.22;;;9.90;99.90;;;;;;5026130;28;20474;-68
2023/03/17 02:32:48;;;;;;;9.85;3.35;;;9.90;99.90;;;;;;5030262;28;20029;-68
2023/03/17 02:35:14;;;;;;;12.55;3.22;;;9.90;99.90;;;;;;5027599;28;20026;-68
2023/03/17 02:37:42;;;;;;;4.63;2.75;;;9.90;99.90;;;;;;5029600;28;20096;-69
2023/03/17 02:40:10;;;;;;;6.57;2.83;;;9.90;99.90;;;;;;5031513;28;20482;-68
2023/03/17 02:42:38;;;;;;;6.60;3.05;;;9.90;99.90;;;;;;5029290;28;20037;-68
2023/03/17 02:45:08;;;;;;;7.32;2.80;;;9.90;99.90;;;;;;5013041;28;20025;-68
2023/03/17 02:47:34;;;;;;;7.82;3.67;;;9.90;99.90;;;;;;5030202;28;20032;-68
2023/03/17 02:50:00;;;;;;;10.18;2.90;;;9.90;99.90;;;;;;5024145;28;20029;-68
2023/03/17 02:52:26;;;;;;;8.75;3.55;;;9.90;99.90;;;;;;5032187;28;20022;-68
2023/03/17 02:54:52;;;;;;;6.07;2.80;;;9.90;99.90;;;;;;5024067;28;20087;-68
2023/03/17 02:57:17;;;;;;;5.72;2.83;;;9.90;99.90;;;;;;5026185;28;20029;-68
2023/03/17 02:59:43;;;;;;;18.80;7.90;;;9.80;99.90;;;;;;5025229;28;20044;-69
2023/03/17 03:02:09;;;;;;;8.20;3.63;;;9.80;99.90;;;;;;5025697;28;20049;-68
2023/03/17 03:04:34;;;;;;;7.68;3.20;;;9.80;99.90;;;;;;5032013;28;20025;-69
2023/03/17 03:07:01;;;;;;;9.73;3.75;;;9.80;99.90;;;;;;5020074;28;20474;-69
2023/03/17 03:09:27;;;;;;;6.00;3.00;;;9.80;99.90;;;;;;5033104;28;20075;-69
2023/03/17 03:11:52;;;;;;;7.53;3.10;;;9.80;99.90;;;;;;5032657;28;20033;-70
2023/03/17 03:14:18;;;;;;;5.95;2.80;;;9.80;99.90;;;;;;5031411;28;20036;-69
2023/03/17 03:16:44;;;;;;;5.50;2.95;;;9.80;99.90;;;;;;5023638;28;20084;-69
2023/03/17 03:19:09;;;;;;;5.97;2.65;;;9.70;99.90;;;;;;5032927;28;20103;-69
2023/03/17 03:21:36;;;;;;;6.10;2.95;;;9.70;99.90;;;;;;5032170;28;20064;-68
2023/03/17 03:24:02;;;;;;;4.82;2.60;;;9.70;99.90;;;;;;5032652;28;20381;-69
2023/03/17 03:26:27;;;;;;;5.82;2.65;;;9.80;99.90;;;;;;5032934;28;20045;-69
2023/03/17 03:28:53;;;;;;;8.20;3.20;;;9.80;99.90;;;;;;5031104;28;20068;-69
2023/03/17 03:31:19;;;;;;;4.05;2.47;;;9.80;99.90;;;;;;5028443;28;20042;-68
2023/03/17 03:33:44;;;;;;;7.60;3.15;;;9.80;99.90;;;;;;5021278;28;20084;-68
2023/03/17 03:36:10;;;;;;;3.25;2.50;;;9.80;99.90;;;;;;5033016;28;20033;-69
2023/03/17 03:38:36;;;;;;;5.22;2.70;;;9.70;99.90;;;;;;5032577;28;20088;-69
2023/03/17 03:41:02;;;;;;;7.38;3.15;;;9.70;99.90;;;;;;5033059;28;20045;-68
2023/03/17 03:43:27;;;;;;;9.00;3.40;;;9.60;99.90;;;;;;5031555;28;20092;-68
2023/03/17 03:45:53;;;;;;;6.65;2.80;;;9.60;99.90;;;;;;5030035;28;20026;-71
2023/03/17 03:48:20;;;;;;;8.95;2.70;;;9.60;99.90;;;;;;5031437;28;20029;-69
2023/03/17 03:50:46;;;;;;;14.70;3.83;;;9.60;99.90;;;;;;5032773;28;20383;-69
2023/03/17 03:53:12;;;;;;;3.67;2.38;;;9.60;99.90;;;;;;5031217;28;20061;-69
2023/03/17 03:55:38;;;;;;;7.20;2.90;;;9.60;99.90;;;;;;5032596;28;20029;-70
2023/03/17 03:58:03;;;;;;;6.40;3.30;;;9.60;99.90;;;;;;5032555;28;20359;-70
2023/03/17 04:00:29;;;;;;;7.45;3.28;;;9.60;99.90;;;;;;5028864;28;20034;-70
2023/03/17 04:02:54;;;;;;;6.57;2.75;;;9.60;99.90;;;;;;5024134;28;20123;-68
2023/03/17 04:05:20;;;;;;;4.40;2.80;;;9.70;99.90;;;;;;5030476;28;20083;-69
2023/03/17 04:07:46;;;;;;;7.82;3.38;;;9.70;99.90;;;;;;5032139;28;20083;-69
2023/03/17 04:10:15;;;;;;;4.15;2.25;;;9.70;99.90;;;;;;5032183;28;20500;-70
2023/03/17 04:12:41;;;;;;;4.15;2.72;;;9.70;99.90;;;;;;5032230;28;20026;-70
2023/03/17 04:15:08;;;;;;;4.45;2.45;;;9.70;99.90;;;;;;5028954;28;20033;-70
2023/03/17 04:17:34;;;;;;;6.65;3.53;;;9.70;99.90;;;;;;5023811;28;20032;-69
2023/03/17 04:19:59;;;;;;;4.97;3.00;;;9.70;99.90;;;;;;5032294;28;20080;-68
2023/03/17 04:22:26;;;;;;;7.57;3.40;;;9.70;99.90;;;;;;5031919;28;20060;-69
2023/03/17 04:24:51;;;;;;;9.13;2.85;;;9.70;99.90;;;;;;5014515;28;20070;-69
2023/03/17 04:27:17;;;;;;;4.80;2.60;;;9.70;99.90;;;;;;5032114;28;20067;-69
2023/03/17 04:29:43;;;;;;;9.82;3.63;;;9.80;99.90;;;;;;5029892;28;20053;-69
2023/03/17 04:32:12;;;;;;;5.47;2.25;;;9.80;99.90;;;;;;5023908;28;20489;-69
2023/03/17 04:34:38;;;;;;;5.93;2.22;;;9.80;99.90;;;;;;5031744;28;20025;-68
2023/03/17 04:37:04;;;;;;;4.53;2.63;;;9.80;99.90;;;;;;5035756;28;20021;-68
2023/03/17 04:39:30;;;;;;;4.57;2.65;;;9.70;99.90;;;;;;5036288;28;20449;-68
2023/03/17 04:41:55;;;;;;;6.57;2.92;;;9.70;99.90;;;;;;5036367;28;20032;-69
2023/03/17 04:44:21;;;;;;;7.72;3.25;;;9.80;99.90;;;;;;5033188;28;20079;-68
2023/03/17 04:46:46;;;;;;;6.10;2.78;;;9.80;99.90;;;;;;5034556;28;20090;-69
2023/03/17 04:49:12;;;;;;;5.22;2.55;;;9.80;99.90;;;;;;5034880;28;20059;-69
2023/03/17 04:51:37;;;;;;;5.55;2.50;;;9.80;99.90;;;;;;5035987;28;20060;-68
2023/03/17 04:54:04;;;;;;;6.63;3.17;;;9.80;99.90;;;;;;5036019;28;20163;-69
2023/03/17 04:56:30;;;;;;;9.43;3.03;;;9.80;99.90;;;;;;5036053;28;20029;-69
2023/03/17 04:58:55;;;;;;;6.47;2.90;;;9.70;99.90;;;;;;5034172;28;20370;-68
2023/03/17 05:01:21;;;;;;;6.72;3.15;;;9.70;99.90;;;;;;5031640;28;20037;-68
2023/03/17 05:03:47;;;;;;;5.70;2.80;;;9.70;99.90;;;;;;5024032;28;20037;-69
2023/03/17 05:06:12;;;;;;;4.82;2.42;;;9.80;99.90;;;;;;5035543;28;20087;-68
2023/03/17 05:08:38;;;;;;;5.93;2.72;;;9.70;99.90;;;;;;5035767;28;20025;-68
2023/03/17 05:11:04;;;;;;;5.18;2.65;;;9.70;99.90;;;;;;5035611;28;20033;-68
2023/03/17 05:13:30;;;;;;;5.97;2.83;;;9.70;99.90;;;;;;5034144;28;20503;-69
2023/03/17 05:15:58;;;;;;;7.28;2.97;;;9.60;99.90;;;;;;5033885;28;20049;-68
2023/03/17 05:18:25;;;;;;;5.00;2.90;;;9.60;99.90;;;;;;5032125;28;20021;-68
2023/03/17 05:20:50;;;;;;;8.77;3.25;;;9.60;99.90;;;;;;5033685;28;20034;-69
2023/03/17 05:23:16;;;;;;;8.30;2.97;;;9.60;99.90;;;;;;5034906;28;20436;-69
2023/03/17 05:25:42;;;;;;;7.95;3.20;;;9.60;99.90;;;;;;5034544;28;20033;-68
2023/03/17 05:28:08;;;;;;;8.50;3.40;;;9.70;99.90;;;;;;5034785;28;20040;-68
2023/03/17 05:30:37;;;;;;;8.18;2.95;;;9.70;99.90;;;;;;5032751;28;20508;-69
2023/03/17 05:33:03;;;;;;;4.15;2.72;;;9.70;99.90;;;;;;5016004;28;20381;-69
2023/03/17 05:35:29;;;;;;;5.88;2.70;;;9.70;99.90;;;;;;5034793;28;20029;-68
2023/03/17 05:37:55;;;;;;;5.55;2.70;;;9.80;99.90;;;;;;5034455;28;20037;-68
2023/03/17 05:40:20;;;;;;;9.00;3.20;;;9.80;99.90;;;;;;5034478;28;20037;-68
2023/03/17 05:42:46;;;;;;;7.18;2.92;;;9.90;99.90;;;;;;5035186;28;20033;-69
2023/03/17 05:45:12;;;;;;;6.28;3.10;;;9.90;99.90;;;;;;5031944;28;20025;-69
2023/03/17 05:47:37;;;;;;;7.43;2.90;;;10.00;99.90;;;;;;5032856;28;20042;-68
2023/03/17 05:50:04;;;;;;;7.57;3.20;;;10.00;99.90;;;;;;5033915;28;20045;-68
2023/03/17 05:52:29;;;;;;;7.30;2.65;;;10.10;99.90;;;;;;5034923;28;20061;-68
2023/03/17 05:54:55;;;;;;;7.22;2.45;;;10.10;99.90;;;;;;5034730;28;20056;-69
2023/03/17 05:57:21;;;;;;;6.93;2.70;;;10.00;99.90;;;;;;5017854;28;20022;-68
2023/03/17 05:59:47;;;;;;;8.07;3.13;;;10.00;99.90;;;;;;5024282;28;20088;-69
2023/03/17 06:02:14;;;;;;;4.93;2.80;;;9.90;99.90;;;;;;5033484;28;20505;-69
2023/03/17 06:04:40;;;;;;;6.05;2.78;;;9.90;99.90;;;;;;5034319;28;20025;-70
2023/03/17 06:07:06;;;;;;;6.15;3.22;;;9.80;99.90;;;;;;5034235;28;20033;-68
2023/03/17 06:09:32;;;;;;;6.72;3.15;;;9.80;99.90;;;;;;5034133;28;20036;-70
2023/03/17 06:11:58;;;;;;;6.97;2.83;;;9.80;99.90;;;;;;5013273;28;20145;-70
2023/03/17 06:14:24;;;;;;;5.40;3.10;;;9.80;99.90;;;;;;5026251;28;20028;-69
2023/03/17 06:16:50;;;;;;;6.55;3.00;;;9.70;99.90;;;;;;5023672;28;20038;-68
2023/03/17 06:19:16;;;;;;;12.10;4.72;;;9.70;99.90;;;;;;5033996;28;20041;-69
2023/03/17 06:21:41;;;;;;;7.53;3.50;;;9.70;99.90;;;;;;5033604;28;20033;-70
2023/03/17 06:24:08;;;;;;;8.82;3.20;;;9.80;99.90;;;;;;5033868;28;20022;-69
2023/03/17 06:26:34;;;;;;;60.70;18.35;;;9.80;99.90;;;;;;5034252;28;20061;-68
2023/03/17 06:29:00;;;;;;;5.18;2.92;;;9.90;99.90;;;;;;5033266;28;20106;-67
2023/03/17 06:31:26;;;;;;;8.25;3.35;;;9.90;99.90;;;;;;5028990;28;20073;-68
2023/03/17 06:33:52;;;;;;;8.65;3.50;;;9.90;99.90;;;;;;5023312;28;20134;-70
2023/03/17 06:36:17;;;;;;;11.48;4.20;;;10.00;99.90;;;;;;5033716;28;20033;-68
2023/03/17 06:38:44;;;;;;;9.38;3.30;;;10.10;99.90;;;;;;5033802;28;20056;-69
2023/03/17 06:41:10;;;;;;;6.90;3.47;;;10.10;99.90;;;;;;5033642;28;20021;-67
2023/03/17 06:43:36;;;;;;;7.68;3.13;;;10.00;99.90;;;;;;5032338;28;20101;-69
2023/03/17 06:46:02;;;;;;;8.32;3.40;;;10.00;99.90;;;;;;5027822;28;20092;-69
2023/03/17 06:48:27;;;;;;;11.15;4.13;;;10.10;99.90;;;;;;5027509;28;20436;-69
2023/03/17 06:50:53;;;;;;;8.23;3.75;;;10.10;99.90;;;;;;5033364;28;20022;-69
2023/03/17 06:53:20;;;;;;;8.25;3.25;;;10.20;99.90;;;;;;5032406;28;20482;-69
2023/03/17 06:55:46;;;;;;;7.75;3.05;;;10.30;99.90;;;;;;5033516;28;20030;-69
2023/03/17 06:58:14;;;;;;;14.05;3.83;;;10.40;99.90;;;;;;5033758;28;20024;-69
2023/03/17 07:00:40;;;;;;;15.73;5.18;;;10.50;99.90;;;;;;5029037;28;20082;-69
2023/03/17 07:03:08;;;;;;;6.93;2.80;;;10.50;99.90;;;;;;5030602;28;20041;-69
2023/03/17 07:05:34;;;;;;;6.85;2.83;;;10.50;99.90;;;;;;5033165;28;20470;-69
2023/03/17 07:07:59;;;;;;;8.75;3.00;;;10.60;99.90;;;;;;5033308;28;20072;-69
2023/03/17 07:10:25;;;;;;;7.70;3.35;;;10.60;99.90;;;;;;5032998;28;20359;-68
2023/03/17 07:12:51;;;;;;;7.45;2.88;;;10.70;99.90;;;;;;5031930;28;20075;-68
2023/03/17 07:15:17;;;;;;;7.70;3.10;;;10.70;99.90;;;;;;5027029;28;20104;-68
2023/03/17 07:17:45;;;;;;;9.68;3.20;;;10.70;99.90;;;;;;5011268;28;20029;-68
2023/03/17 07:20:12;;;;;;;10.60;5.03;;;10.80;99.90;;;;;;5032794;28;20034;-68
2023/03/17 07:22:38;;;;;;;5.32;2.88;;;10.80;99.90;;;;;;5033334;28;20412;-68
2023/03/17 07:25:04;;;;;;;7.43;3.28;;;10.80;99.90;;;;;;5032830;28;20116;-68
2023/03/17 07:27:30;;;;;;;7.38;3.45;;;10.90;99.90;;;;;;5032952;28;20465;-69
2023/03/17 07:29:55;;;;;;;7.43;3.30;;;11.00;99.90;;;;;;5030113;28;20046;-68
2023/03/17 07:32:21;;;;;;;7.07;2.83;;;11.00;99.90;;;;;;5032613;28;20102;-69
2023/03/17 07:34:47;;;;;;;7.93;3.55;;;11.10;99.90;;;;;;5032532;28;20033;-68
2023/03/17 07:37:13;;;;;;;9.27;4.03;;;11.10;99.90;;;;;;5032806;28;20032;-68
2023/03/17 07:39:39;;;;;;;7.10;3.03;;;11.20;99.90;;;;;;5032644;28;20041;-68
2023/03/17 07:42:04;;;;;;;9.77;3.40;;;11.30;99.90;;;;;;5032913;28;20022;-68
2023/03/17 07:44:32;;;;;;;8.85;3.35;;;11.40;99.90;;;;;;5029671;28;20025;-69
2023/03/17 07:46:57;;;;;;;8.43;3.85;;;11.60;99.90;;;;;;5032287;28;20029;-70
2023/03/17 07:49:23;;;;;;;9.73;3.45;;;11.80;99.90;;;;;;5033030;28;20389;-70
2023/03/17 07:51:49;;;;;;;8.00;2.95;;;11.90;99.90;;;;;;5032390;28;20511;-68
2023/03/17 07:54:14;;;;;;;8.35;3.90;;;12.00;99.90;;;;;;5031143;28;20033;-68
2023/03/17 07:56:41;;;;;;;6.57;3.25;;;12.20;99.90;;;;;;5032525;28;20053;-70
2023/03/17 07:59:07;;;;;;;12.80;4.15;;;12.30;99.90;;;;;;5030782;28;20052;-69
2023/03/17 08:01:34;;;;;;;6.63;3.33;;;12.30;99.90;;;;;;5027393;28;20022;-69
2023/03/17 08:03:59;;;;;;;6.55;3.13;;;12.30;99.90;;;;;;5032403;28;20037;-71
2023/03/17 08:06:25;;;;;;;6.22;2.50;;;12.30;99.90;;;;;;5032133;28;20033;-69
2023/03/17 08:08:52;;;;;;;6.88;3.47;;;12.10;99.90;;;;;;5013835;28;20473;-69
2023/03/17 08:11:18;;;;;;;8.00;3.38;;;11.90;99.90;;;;;;5032104;28;20030;-69
2023/03/17 08:13:44;;;;;;;9.13;3.50;;;11.80;99.90;;;;;;5032283;28;20022;-70
2023/03/17 08:16:10;;;;;;;9.50;3.75;;;11.60;99.90;;;;;;5030339;28;20032;-69
2023/03/17 08:18:36;;;;;;;8.18;3.70;;;11.50;99.90;;;;;;5023918;28;20034;-69
2023/03/17 08:21:03;;;;;;;8.63;3.88;;;11.50;99.90;;;;;;5031011;28;20493;-69
2023/03/17 08:23:29;;;;;;;7.60;3.58;;;11.50;99.90;;;;;;5031674;28;20104;-69
2023/03/17 08:26:02;;;;;;;12.02;5.07;;;11.60;99.90;;;;;;5031690;28;20112;-69
2023/03/17 08:28:28;;;;;;;11.68;3.58;;;12.10;99.90;;;;;;5032226;28;20109;-70
2023/03/17 08:30:54;;;;;;;8.75;3.45;;;13.20;99.90;;;;;;5028060;28;20125;-69
2023/03/17 08:33:20;;;;;;;5.90;3.17;;;14.50;99.90;;;;;;5030510;28;20137;-70
2023/03/17 08:35:47;;;;;;;7.10;3.30;;;15.90;99.30;;;;;;5031202;28;20026;-70
2023/03/17 08:38:12;;;;;;;6.38;3.17;;;17.20;96.90;;;;;;5030881;28;20029;-70
2023/03/17 08:40:39;;;;;;;8.90;3.78;;;18.30;95.30;;;;;;5031383;28;20036;-70
2023/03/17 08:43:06;;;;;;;5.85;3.13;;;19.00;94.30;;;;;;5031919;28;20025;-70
2023/03/17 08:45:32;;;;;;;6.75;3.83;;;19.70;92.90;;;;;;5026141;28;20026;-69
2023/03/17 08:47:58;;;;;;;8.43;4.07;;;20.00;92.40;;;;;;5018208;28;20037;-69
2023/03/17 08:50:24;;;;;;;6.18;2.72;;;20.10;92.10;;;;;;5026101;28;20032;-68
2023/03/17 08:52:51;;;;;;;9.55;4.50;;;20.20;91.60;;;;;;5031313;28;20034;-68
2023/03/17 08:55:17;;;;;;;7.40;3.40;;;20.20;91.60;;;;;;5026145;28;20033;-68
2023/03/17 08:57:44;;;;;;;11.95;5.28;;;20.70;91.00;;;;;;5026699;28;20979;-69
2023/03/17 09:00:19;;;;;;;10.07;4.40;;;21.20;90.90;;;;;;5024727;28;20145;-68
2023/03/17 09:02:49;;;;;;;8.82;4.55;;;21.70;90.20;;;;;;5026929;28;20034;-70
2023/03/17 09:05:16;;;;;;;11.13;4.10;;;22.30;88.60;;;;;;5029996;28;20018;-69
2023/03/17 09:07:42;;;;;;;8.40;3.95;;;22.50;87.10;;;;;;5030473;28;20132;-68
2023/03/17 09:10:09;;;;;;;7.10;3.28;;;22.40;86.90;;;;;;5029200;28;20441;-68
2023/03/17 09:12:36;;;;;;;6.30;3.65;;;22.20;87.00;;;;;;5028043;28;20032;-69
2023/03/17 09:15:02;;;;;;;11.60;5.88;;;22.10;87.40;;;;;;5024988;28;20080;-68
2023/03/17 09:17:28;;;;;;;9.40;3.88;;;21.90;88.10;;;;;;5027153;28;20041;-68
2023/03/17 09:19:54;;;;;;;8.80;4.22;;;21.70;88.10;;;;;;5028173;28;20034;-68
2023/03/17 09:22:19;;;;;;;7.78;4.10;;;21.50;88.40;;;;;;5024724;28;20053;-68
2023/03/17 09:24:45;;;;;;;8.73;3.80;;;21.30;88.80;;;;;;5028879;28;20030;-68
2023/03/17 09:27:11;;;;;;;13.15;4.95;;;20.90;90.00;;;;;;5033766;28;20021;-68
2023/03/17 09:29:37;;;;;;;10.93;5.22;;;20.50;90.70;;;;;;5030810;28;20053;-68
2023/03/17 09:32:03;;;;;;;7.07;3.60;;;20.30;90.90;;;;;;5023842;28;20021;-69
2023/03/17 09:34:28;;;;;;;7.93;4.40;;;20.40;91.00;;;;;;5022112;28;20462;-69
2023/03/17 09:36:54;;;;;;;17.00;8.23;;;20.40;90.90;;;;;;5030716;28;20105;-68
2023/03/17 09:39:21;;;;;;;11.85;4.15;;;20.20;91.40;;;;;;5033909;28;20044;-68
2023/03/17 09:42:12;;;;;;;15.18;6.75;;;19.90;91.60;;;;;;5033286;28;20486;-68
2023/03/17 09:44:55;;;;;;;9.93;4.07;;;19.30;92.30;;;;;;5029916;28;20025;-69
2023/03/17 09:47:42;;;;;;;14.40;6.20;;;18.90;92.80;;;;;;5032576;28;20117;-67
2023/03/17 09:50:24;;;;;;;10.25;4.90;;;18.40;93.40;;;;;;5028494;28;20076;-70
2023/03/17 09:52:51;;;;;;;13.20;4.47;;;18.20;94.10;;;;;;5030944;28;20112;-71
2023/03/17 09:55:28;;;;;;;8.07;3.28;;;17.90;94.00;;;;;;5033440;28;20135;-70
2023/03/17 09:57:55;;;;;;;9.10;4.35;;;17.80;94.50;;;;;;5027155;28;20025;-69
2023/03/17 10:00:29;;;;;;;15.55;5.60;;;18.00;95.00;;;;;;5026669;28;20025;-69
2023/03/17 10:02:56;;;;;;;9.68;4.50;;;18.90;94.30;;;;;;5027774;28;20190;-69
2023/03/17 10:05:28;;;;;;;13.65;4.03;;;20.10;93.10;;;;;;5031796;28;20028;-68
2023/03/17 10:08:27;;;;;;;11.07;4.57;;;20.90;92.00;;;;;;5027391;28;20029;-69
2023/03/17 10:10:58;;;;;;;9.60;3.97;;;21.70;91.40;;;;;;5031997;28;20030;-70
2023/03/17 10:13:45;;;;;;;9.77;4.20;;;22.30;90.30;;;;;;5032591;28;20048;-69
2023/03/17 10:16:13;;;;;;;11.10;5.00;;;22.70;90.00;;;;;;5026393;28;20025;-70
2023/03/17 10:19:12;;;;;;;13.38;5.50;;;23.00;89.70;;;;;;5032460;28;20033;-69
2023/03/17 10:21:56;;;;;;;10.75;4.68;;;23.30;89.50;;;;;;5008914;28;20038;-69
2023/03/17 10:24:23;;;;;;;13.27;6.20;;;23.70;88.60;;;;;;5021197;28;20393;-70
2023/03/17 10:26:52;;;;;;;14.65;5.20;;;24.10;87.90;;;;;;5025633;28;20041;-68
2023/03/17 10:29:23;;;;;;;12.35;5.55;;;23.30;88.70;;;;;;5028862;28;20032;-69
2023/03/17 10:31:58;;;;;;;11.48;4.70;;;22.70;89.70;;;;;;5033339;28;20112;-69
2023/03/17 10:34:31;;;;;;;15.57;6.32;;;21.70;90.70;;;;;;5012835;28;20516;-71
2023/03/17 10:37:05;;;;;;;10.18;5.65;;;20.80;91.40;;;;;;5034315;28;20025;-69
2023/03/17 10:39:40;;;;;;;12.05;5.00;;;20.40;91.80;;;;;;5032747;28;20490;-71
2023/03/17 10:42:24;;;;;;;13.45;5.05;;;20.10;92.30;;;;;;5016235;28;20025;-70
2023/03/17 10:44:53;;;;;;;8.38;4.90;;;20.10;92.50;;;;;;5012012;28;20068;-69
2023/03/17 10:47:29;;;;;;;15.32;6.13;;;19.80;92.80;;;;;;5031712;28;20080;-69
2023/03/17 10:50:20;;;;;;;12.02;5.05;;;19.70;93.10;;;;;;5025936;28;20054;-71
2023/03/17 10:52:51;;;;;;;12.38;5.60;;;19.80;93.10;;;;;;5019561;28;20121;-69
2023/03/17 10:55:20;;;;;;;14.18;5.25;;;19.80;93.30;;;;;;5031613;28;20029;-70
2023/03/17 10:57:54;;;;;;;12.65;4.90;;;19.80;93.30;;;;;;5014949;28;20030;-70
2023/03/17 11:00:22;;;;;;;12.13;5.15;;;19.90;93.10;;;;;;5032008;28;20037;-69
2023/03/17 11:02:58;;;;;;;9.95;5.18;;;19.70;93.30;;;;;;5032608;28;20903;-70
2023/03/17 11:05:27;;;;;;;12.32;5.40;;;19.50;93.30;;;;;;5010587;28;20568;-71
2023/03/17 11:08:18;;;;;;;12.05;5.85;;;19.40;93.70;;;;;;5014609;28;20037;-69
2023/03/17 11:10:44;;;;;;;11.45;5.38;;;19.30;94.10;;;;;;5027652;28;20083;-68
2023/03/17 11:13:15;;;;;;;12.30;5.53;;;19.40;94.10;;;;;;5032294;28;20028;-68
2023/03/17 11:15:48;;;;;;;13.70;5.13;;;19.70;93.90;;;;;;5033352;28;20072;-70
2023/03/17 11:18:37;;;;;;;11.95;5.65;;;19.90;93.90;;;;;;5033440;28;20116;-68
2023/03/17 11:21:22;;;;;;;12.00;5.20;;;19.80;94.30;;;;;;5031635;28;20499;-68
2023/03/17 11:24:13;;;;;;;16.05;6.47;;;19.70;94.50;;;;;;5033177;28;20025;-69
2023/03/17 11:27:05;;;;;;;18.45;7.00;;;19.70;94.50;;;;;;5019476;28;20104;-69
2023/03/17 11:30:02;;;;;;;17.05;6.68;;;19.80;94.70;;;;;;5032316;28;20025;-70
2023/03/17 11:32:39;;;;;;;11.85;4.95;;;19.90;94.50;;;;;;5033055;28;20035;-69
2023/03/17 11:35:23;;;;;;;14.20;6.00;;;20.00;93.90;;;;;;5033116;28;20538;-68
2023/03/17 11:38:07;;;;;;;12.23;5.95;;;20.00;94.20;;;;;;5032857;28;20035;-69
2023/03/17 11:40:42;;;;;;;12.93;6.15;;;19.90;94.30;;;;;;4999455;28;20044;-69
2023/03/17 11:43:31;;;;;;;11.57;5.35;;;20.00;94.20;;;;;;5032460;28;20029;-68
2023/03/17 11:46:15;;;;;;;11.90;5.88;;;20.00;94.40;;;;;;5032271;28;20033;-69
2023/03/17 11:48:54;;;;;;;12.45;5.38;;;20.00;94.40;;;;;;5026412;28;20029;-69
2023/03/17 11:51:44;;;;;;;14.18;6.05;;;19.80;94.60;;;;;;5032486;28;20462;-69
2023/03/17 11:54:41;;;;;;;15.85;6.40;;;19.70;95.10;;;;;;5032333;28;20436;-68
2023/03/17 11:57:22;;;;;;;13.75;6.20;;;19.70;94.80;;;;;;5024494;28;20048;-67
2023/03/17 11:59:57;;;;;;;14.23;5.78;;;19.60;95.10;;;;;;5032275;28;20540;-69
2023/03/17 12:02:39;;;;;;;13.18;5.63;;;19.50;95.50;;;;;;5032199;28;20096;-67
2023/03/17 12:05:08;;;;;;;11.48;5.03;;;20.00;96.20;;;;;;5031663;28;20026;-68
2023/03/17 12:07:44;;;;;;;12.70;5.82;;;20.70;95.20;;;;;;5014714;28;20037;-70
2023/03/17 12:10:21;;;;;;;12.57;5.70;;;21.10;94.40;;;;;;5014540;28;20048;-69
2023/03/17 12:12:55;;;;;;;16.10;5.63;;;21.80;93.30;;;;;;5032454;28;20021;-69
2023/03/17 12:15:36;;;;;;;12.52;5.00;;;22.60;92.80;;;;;;5031996;28;20381;-69
2023/03/17 12:18:17;;;;;;;15.20;6.33;;;23.30;92.20;;;;;;5032104;28;20116;-69
2023/03/17 12:20:54;;;;;;;13.57;5.60;;;24.00;91.40;;;;;;5017825;28;20037;-70
2023/03/17 12:23:55;;;;;;;15.73;8.00;;;24.60;90.70;;;;;;5032433;28;20025;-69
2023/03/17 12:27:02;;;;;;;12.32;6.30;;;25.30;90.20;;;;;;5031418;28;20021;-69
2023/03/17 12:29:49;;;;;;;13.70;5.82;;;25.60;88.60;;;;;;4956344;28;20484;-70
2023/03/17 12:32:25;;;;;;;15.05;5.30;;;25.40;89.10;;;;;;4954931;28;20098;-74
2023/03/17 12:35:00;;;;;;;13.45;6.07;;;25.30;89.20;;;;;;5005518;28;20397;-71
2023/03/17 12:37:28;;;;;;;13.50;5.20;;;25.40;89.20;;;;;;5032197;28;20031;-69
2023/03/17 12:40:13;;;;;;;10.25;5.25;;;25.40;88.60;;;;;;5032058;28;20111;-67
2023/03/17 12:42:53;;;;;;;15.02;5.57;;;25.40;88.40;;;;;;5024349;28;20038;-68
2023/03/17 12:45:40;;;;;;;10.90;4.93;;;25.00;88.20;;;;;;5031898;28;20450;-67
2023/03/17 12:48:26;;;;;;;10.75;4.68;;;24.50;89.70;;;;;;5031087;28;20540;-67
2023/03/17 12:51:08;;;;;;;15.07;5.65;;;24.30;90.10;;;;;;5031958;28;20051;-67
2023/03/17 12:53:52;;;;;;;12.63;5.68;;;24.00;90.20;;;;;;5032385;28;20505;-67
2023/03/17 12:56:20;;;;;;;12.13;4.90;;;23.60;90.40;;;;;;5035529;28;20026;-67
2023/03/17 12:58:51;;;;;;;13.23;5.55;;;23.30;90.80;;;;;;5035874;28;20060;-67
2023/03/17 13:01:44;;;;;;;15.68;5.55;;;23.00;91.10;;;;;;5035929;28;20441;-68